Time;durP1;ratioP1;P1;durP2;ratioP2;P2;SDS_P1;SDS_P2;PMS_P1;PMS_P2;Temp;Humidity;BMP_temperature;BMP_pressure;BME280_temperature;BME280_humidity;BME280_pressure;Samples;Min_cycle;Max_cycle;Signal;HPM_P1;HPM_P2
2022/08/02 00:01:30;;;;;;;1.60;1.37;;;19.70;97.30;;;;;;5032743;28;20185;-88
2022/08/02 00:03:55;;;;;;;1.40;1.30;;;19.70;97.30;;;;;;5035429;28;20188;-88
2022/08/02 00:06:20;;;;;;;1.83;1.73;;;19.60;97.30;;;;;;5042425;28;20188;-88
2022/08/02 00:08:46;;;;;;;1.40;1.40;;;19.60;97.30;;;;;;5033040;28;20200;-89
2022/08/02 00:11:12;;;;;;;4.13;1.87;;;19.60;97.30;;;;;;5032410;28;20184;-88
2022/08/02 00:13:37;;;;;;;1.57;1.47;;;19.50;97.30;;;;;;5032680;28;20200;-88
2022/08/02 00:16:03;;;;;;;1.10;1.10;;;19.50;97.30;;;;;;5032843;28;20639;-88
2022/08/02 00:18:29;;;;;;;1.13;1.10;;;19.50;97.30;;;;;;5033000;28;20698;-88
2022/08/02 00:20:54;;;;;;;1.70;1.33;;;19.50;97.30;;;;;;5032597;28;20472;-88
2022/08/02 00:23:20;;;;;;;1.67;1.57;;;19.40;97.30;;;;;;5045270;28;20219;-89
2022/08/02 00:25:45;;;;;;;2.70;2.13;;;19.40;97.30;;;;;;5041602;28;20188;-88
2022/08/02 00:28:11;;;;;;;1.33;1.20;;;19.40;97.30;;;;;;5050890;28;20208;-88
2022/08/02 00:30:37;;;;;;;1.90;1.47;;;19.40;97.30;;;;;;5051561;28;20188;-89
2022/08/02 00:33:04;;;;;;;1.97;1.67;;;19.40;97.30;;;;;;5038080;28;20204;-89
2022/08/02 00:35:30;;;;;;;4.70;2.47;;;19.40;97.30;;;;;;5051093;28;20426;-89
2022/08/02 00:37:56;;;;;;;1.50;1.23;;;19.40;97.30;;;;;;5050204;28;20450;-88
2022/08/02 00:40:23;;;;;;;1.70;1.57;;;19.40;97.30;;;;;;5042269;28;20557;-88
2022/08/02 00:43:09;;;;;;;1.83;1.80;;;19.30;97.30;;;;;;5035923;28;20180;-88
2022/08/02 00:45:39;;;;;;;1.20;1.20;;;19.30;97.30;;;;;;5038392;28;20448;-89
2022/08/02 00:48:07;;;;;;;1.50;1.40;;;19.30;97.30;;;;;;5044711;28;20447;-88
2022/08/02 00:50:35;;;;;;;1.50;1.07;;;19.30;97.30;;;;;;5044683;28;20778;-88
2022/08/02 00:53:01;;;;;;;2.27;2.07;;;19.30;97.30;;;;;;5019743;28;20462;-88
2022/08/02 00:55:27;;;;;;;2.07;1.93;;;19.30;97.30;;;;;;5031294;28;20423;-88
2022/08/02 00:57:53;;;;;;;1.20;1.10;;;19.30;97.30;;;;;;5033417;28;20439;-88
2022/08/02 01:00:19;;;;;;;1.70;1.60;;;19.20;97.30;;;;;;5031357;28;20427;-88
2022/08/02 01:02:45;;;;;;;1.77;1.67;;;19.20;97.30;;;;;;5018859;28;20185;-88
2022/08/02 01:05:10;;;;;;;1.80;1.70;;;19.20;97.30;;;;;;5032183;28;21056;-88
2022/08/02 01:07:36;;;;;;;4.50;2.00;;;19.20;97.30;;;;;;5026609;28;20665;-89
2022/08/02 01:10:02;;;;;;;1.20;1.10;;;19.20;97.30;;;;;;5050724;28;20570;-88
2022/08/02 01:12:28;;;;;;;1.77;1.67;;;19.10;97.30;;;;;;5050050;28;20456;-88
2022/08/02 01:14:58;;;;;;;2.87;1.60;;;19.10;97.30;;;;;;5037164;28;20518;-88
2022/08/02 01:17:42;;;;;;;1.57;1.20;;;19.10;97.30;;;;;;5019214;28;20589;-88
2022/08/02 01:20:41;;;;;;;1.60;1.60;;;19.10;97.30;;;;;;5030859;28;20845;-88
2022/08/02 01:23:40;;;;;;;14.37;2.03;;;19.00;97.30;;;;;;5031587;28;20438;-89
2022/08/02 01:26:36;;;;;;;1.53;1.27;;;19.00;97.30;;;;;;5032257;28;20430;-88
2022/08/02 01:29:20;;;;;;;2.13;1.80;;;19.00;97.30;;;;;;5021369;28;20769;-88
2022/08/02 01:32:06;;;;;;;2.03;1.63;;;18.90;97.30;;;;;;5049332;28;20425;-89
2022/08/02 01:34:48;;;;;;;1.33;1.23;;;18.90;97.30;;;;;;5050296;28;20422;-88
2022/08/02 01:37:18;;;;;;;1.40;1.30;;;18.90;97.30;;;;;;5041131;28;20415;-88
2022/08/02 01:39:47;;;;;;;2.70;2.37;;;18.90;97.30;;;;;;5030414;28;20473;-88
2022/08/02 01:42:14;;;;;;;1.30;1.20;;;18.80;97.30;;;;;;5042566;28;20846;-88
2022/08/02 01:44:41;;;;;;;1.70;1.60;;;18.80;97.30;;;;;;5051276;28;20415;-89
2022/08/02 01:47:14;;;;;;;1.10;1.00;;;18.80;97.30;;;;;;5039985;28;20910;-88
2022/08/02 01:49:41;;;;;;;1.63;1.50;;;18.80;97.30;;;;;;5030985;28;20544;-88
2022/08/02 01:52:20;;;;;;;1.70;1.60;;;18.70;97.30;;;;;;5034293;28;20466;-89
2022/08/02 01:54:49;;;;;;;2.10;1.97;;;18.70;97.30;;;;;;5043062;28;20423;-88
2022/08/02 01:57:16;;;;;;;3.00;2.43;;;18.70;97.30;;;;;;5042330;28;20419;-88
2022/08/02 01:59:44;;;;;;;5.40;1.70;;;18.70;97.30;;;;;;5042716;28;20430;-89
2022/08/02 02:02:12;;;;;;;3.73;1.50;;;18.60;97.30;;;;;;5038921;28;20969;-88
2022/08/02 02:04:39;;;;;;;2.73;1.80;;;18.60;97.30;;;;;;5034955;28;20473;-88
2022/08/02 02:07:06;;;;;;;3.20;1.60;;;18.60;97.30;;;;;;5036278;28;20933;-88
2022/08/02 02:09:36;;;;;;;1.40;1.30;;;18.60;97.30;;;;;;5046870;28;20494;-88
2022/08/02 02:12:03;;;;;;;1.37;1.30;;;18.60;97.30;;;;;;5039716;28;20587;-88
2022/08/02 02:14:29;;;;;;;1.70;1.70;;;18.60;97.30;;;;;;5033942;28;20422;-88
2022/08/02 02:16:57;;;;;;;1.50;1.40;;;18.60;97.30;;;;;;5030736;28;20426;-88
2022/08/02 02:19:24;;;;;;;1.83;1.73;;;18.60;97.30;;;;;;5030667;28;20427;-88
2022/08/02 02:21:50;;;;;;;4.17;2.07;;;18.50;97.30;;;;;;5039865;28;20422;-88
2022/08/02 02:24:15;;;;;;;1.87;1.77;;;18.50;97.30;;;;;;5032222;28;20413;-89
2022/08/02 02:26:43;;;;;;;2.17;1.80;;;18.50;97.30;;;;;;5045016;28;20179;-88
2022/08/02 02:29:10;;;;;;;1.63;1.53;;;18.50;97.30;;;;;;5041608;28;20188;-88
2022/08/02 02:31:38;;;;;;;2.50;1.90;;;18.50;97.30;;;;;;5029761;28;20465;-88
2022/08/02 02:34:09;;;;;;;5.70;1.33;;;18.50;97.30;;;;;;5030378;28;20499;-88
2022/08/02 02:36:38;;;;;;;1.67;1.27;;;18.50;97.30;;;;;;5043044;28;20989;-88
2022/08/02 02:41:32;;;;;;;1.00;1.00;;;18.40;97.30;;;;;;5034496;28;20466;-83
2022/08/02 02:44:01;;;;;;;5.60;3.07;;;18.30;97.30;;;;;;5006765;28;20416;-82
2022/08/02 02:46:29;;;;;;;1.43;1.33;;;18.30;97.30;;;;;;4999393;28;20435;-82
2022/08/02 02:48:55;;;;;;;1.57;1.47;;;18.30;97.30;;;;;;4993010;28;20475;-83
2022/08/02 02:51:22;;;;;;;1.90;1.80;;;18.20;97.30;;;;;;4996880;28;20417;-83
2022/08/02 02:53:49;;;;;;;2.43;1.87;;;18.10;97.30;;;;;;4996268;28;20237;-82
2022/08/02 02:56:16;;;;;;;1.93;1.67;;;18.10;97.30;;;;;;4999951;28;20412;-82
2022/08/02 02:58:43;;;;;;;1.77;1.67;;;18.00;97.30;;;;;;5005508;28;20441;-82
2022/08/02 03:01:28;;;;;;;4.77;2.40;;;18.00;97.30;;;;;;4980319;28;21129;-82
2022/08/02 03:04:05;;;;;;;6.00;2.27;;;17.90;97.30;;;;;;4993668;28;20430;-83
2022/08/02 03:06:31;;;;;;;1.60;1.50;;;17.90;97.30;;;;;;4989971;28;20420;-83
2022/08/02 03:08:58;;;;;;;1.43;1.33;;;17.90;97.30;;;;;;4997248;28;20478;-83
2022/08/02 03:11:28;;;;;;;1.60;1.50;;;17.90;97.30;;;;;;4985500;28;20429;-83
2022/08/02 03:14:01;;;;;;;1.93;1.83;;;17.90;97.30;;;;;;5004440;28;20463;-82
2022/08/02 03:16:27;;;;;;;1.53;1.50;;;17.90;97.30;;;;;;4983978;28;20810;-83
2022/08/02 03:18:54;;;;;;;1.37;1.30;;;17.90;97.30;;;;;;4998277;28;20436;-83
2022/08/02 03:21:20;;;;;;;8.43;1.77;;;17.90;97.30;;;;;;4997316;28;20432;-82
2022/08/02 03:23:46;;;;;;;1.40;1.30;;;17.80;97.30;;;;;;4998053;28;20692;-82
2022/08/02 03:26:12;;;;;;;1.20;1.10;;;17.80;97.30;;;;;;4997101;28;20429;-82
2022/08/02 03:28:38;;;;;;;1.10;1.00;;;17.80;97.30;;;;;;4996916;28;20456;-82
2022/08/02 03:31:04;;;;;;;2.00;1.40;;;17.80;97.30;;;;;;4997267;28;20428;-82
2022/08/02 03:33:31;;;;;;;2.40;1.83;;;17.80;97.30;;;;;;4987341;28;20499;-82
2022/08/02 03:35:59;;;;;;;3.00;1.60;;;17.80;97.30;;;;;;4985138;28;20428;-83
2022/08/02 03:38:26;;;;;;;2.37;1.60;;;17.80;97.30;;;;;;4990920;28;20500;-83
2022/08/02 03:40:53;;;;;;;1.57;1.47;;;17.80;97.30;;;;;;4984523;28;20480;-82
2022/08/02 03:43:20;;;;;;;1.47;1.37;;;17.80;97.30;;;;;;4974965;28;20847;-83
2022/08/02 03:45:48;;;;;;;3.17;1.83;;;17.80;97.30;;;;;;4980037;28;20453;-83
2022/08/02 03:48:17;;;;;;;3.70;1.47;;;17.70;97.30;;;;;;4981460;28;20718;-83
2022/08/02 03:50:46;;;;;;;0.97;0.97;;;17.70;97.30;;;;;;4981009;28;20426;-83
2022/08/02 03:53:12;;;;;;;2.80;1.80;;;17.70;97.30;;;;;;4981074;28;20465;-82
2022/08/02 03:55:39;;;;;;;1.87;1.77;;;17.70;97.30;;;;;;4981541;28;20943;-83
2022/08/02 03:58:05;;;;;;;2.13;2.00;;;17.60;97.30;;;;;;4980072;28;20522;-83
2022/08/02 04:00:31;;;;;;;1.20;1.20;;;17.60;97.30;;;;;;4981235;28;20414;-82
2022/08/02 04:02:57;;;;;;;3.30;1.70;;;17.60;97.30;;;;;;4981962;28;20433;-83
2022/08/02 04:05:23;;;;;;;2.17;1.97;;;17.60;97.30;;;;;;4967989;28;20213;-83
2022/08/02 04:07:49;;;;;;;2.17;1.70;;;17.60;97.30;;;;;;4982080;28;20817;-82
2022/08/02 04:10:15;;;;;;;2.10;1.67;;;17.60;97.30;;;;;;4964707;28;20190;-82
2022/08/02 04:12:41;;;;;;;7.83;2.70;;;17.60;97.30;;;;;;4980569;28;21073;-83
2022/08/02 04:15:09;;;;;;;1.20;1.10;;;17.50;97.30;;;;;;4980430;28;20453;-82
2022/08/02 04:17:57;;;;;;;6.90;1.80;;;17.60;97.30;;;;;;4981924;28;20201;-82
2022/08/02 04:20:30;;;;;;;2.67;2.00;;;17.60;97.30;;;;;;4968493;28;20422;-82
2022/08/02 04:23:01;;;;;;;1.27;1.20;;;17.60;97.30;;;;;;4980145;28;20434;-82
2022/08/02 04:25:27;;;;;;;1.80;1.70;;;17.60;97.30;;;;;;4971226;28;20451;-82
2022/08/02 04:27:54;;;;;;;13.03;1.87;;;17.60;97.30;;;;;;4973028;28;20441;-82
2022/08/02 04:30:20;;;;;;;1.90;1.80;;;17.50;97.30;;;;;;4972196;28;20485;-82
2022/08/02 04:32:46;;;;;;;2.27;1.77;;;17.50;97.30;;;;;;4977587;28;20548;-82
2022/08/02 04:35:12;;;;;;;5.13;1.80;;;17.50;97.30;;;;;;4980682;28;20673;-82
2022/08/02 04:37:39;;;;;;;2.70;1.93;;;17.50;97.30;;;;;;4980207;28;20264;-82
2022/08/02 04:40:09;;;;;;;1.20;1.10;;;17.50;97.30;;;;;;4985578;28;20470;-82
2022/08/02 04:42:35;;;;;;;1.37;1.30;;;17.50;97.30;;;;;;4996601;28;20432;-82
2022/08/02 04:45:02;;;;;;;5.03;2.10;;;17.50;97.30;;;;;;4996457;28;20425;-83
2022/08/02 04:47:28;;;;;;;1.30;1.30;;;17.50;97.30;;;;;;4995960;28;20934;-82
2022/08/02 04:49:54;;;;;;;5.63;2.30;;;17.50;97.30;;;;;;4997201;28;20885;-82
2022/08/02 04:52:20;;;;;;;1.50;1.43;;;17.50;97.30;;;;;;4995871;28;20519;-82
2022/08/02 04:54:45;;;;;;;3.43;1.83;;;17.50;97.30;;;;;;4996027;28;20210;-81
2022/08/02 04:59:55;;;;;;;5.77;1.67;;;17.60;97.30;;;;;;4981432;28;20245;-82
2022/08/02 05:02:21;;;;;;;1.90;1.80;;;17.60;97.30;;;;;;4995798;28;20516;-82
2022/08/02 05:04:47;;;;;;;1.50;1.50;;;17.70;97.30;;;;;;4996058;28;20576;-82
2022/08/02 05:07:12;;;;;;;1.40;1.30;;;17.70;97.30;;;;;;4980987;28;20241;-82
2022/08/02 05:09:38;;;;;;;2.47;1.87;;;17.70;97.30;;;;;;4995664;28;20210;-82
2022/08/02 05:12:04;;;;;;;3.43;2.17;;;17.70;97.30;;;;;;4995409;28;20281;-82
2022/08/02 05:14:30;;;;;;;1.67;1.57;;;17.70;97.30;;;;;;4966981;28;20175;-82
2022/08/02 05:16:55;;;;;;;1.47;1.37;;;17.70;97.30;;;;;;4995124;28;20881;-82
2022/08/02 05:19:21;;;;;;;2.80;2.40;;;17.80;97.30;;;;;;4996335;28;20775;-83
2022/08/02 05:21:46;;;;;;;1.30;1.20;;;17.80;97.30;;;;;;4994123;28;20599;-83
2022/08/02 05:24:12;;;;;;;1.30;1.20;;;17.80;97.30;;;;;;4994701;28;20190;-82
2022/08/02 05:26:38;;;;;;;1.13;1.10;;;17.90;97.30;;;;;;4995392;28;20249;-82
2022/08/02 05:29:04;;;;;;;1.57;1.47;;;17.90;97.30;;;;;;4983685;28;20217;-85
2022/08/02 05:31:30;;;;;;;3.60;1.70;;;18.00;97.30;;;;;;4995011;28;20209;-83
2022/08/02 05:33:55;;;;;;;1.93;1.43;;;18.00;97.30;;;;;;4978798;28;20218;-83
2022/08/02 05:36:21;;;;;;;1.40;1.40;;;18.00;97.30;;;;;;4983326;28;20424;-83
2022/08/02 05:38:46;;;;;;;1.50;1.40;;;18.10;97.30;;;;;;4978891;28;20206;-82
2022/08/02 05:41:12;;;;;;;2.57;2.37;;;18.10;97.30;;;;;;4992681;28;20294;-83
2022/08/02 05:43:38;;;;;;;2.27;1.50;;;18.10;97.30;;;;;;4971496;28;20186;-82
2022/08/02 05:46:03;;;;;;;1.40;1.30;;;18.20;97.30;;;;;;4983863;28;20197;-83
2022/08/02 05:48:29;;;;;;;2.23;2.03;;;18.20;97.30;;;;;;4982293;28;20206;-83
2022/08/02 05:51:04;;;;;;;1.63;1.60;;;18.20;97.30;;;;;;4992915;28;20282;-83
2022/08/02 05:54:04;;;;;;;5.17;1.57;;;18.20;97.30;;;;;;4980719;28;20238;-83
2022/08/02 05:56:45;;;;;;;2.17;1.90;;;18.30;97.30;;;;;;4988662;28;20456;-83
2022/08/02 05:59:24;;;;;;;2.17;1.70;;;18.30;97.30;;;;;;4979704;28;20453;-83
2022/08/02 06:01:56;;;;;;;3.60;1.97;;;18.40;97.30;;;;;;4959132;28;20410;-83
2022/08/02 06:04:32;;;;;;;1.63;1.43;;;18.40;97.30;;;;;;4976349;28;20418;-83
2022/08/02 06:07:01;;;;;;;1.53;1.43;;;18.40;97.30;;;;;;4973957;28;20470;-83
2022/08/02 06:09:28;;;;;;;1.30;1.20;;;18.50;97.30;;;;;;4979379;28;20444;-83
2022/08/02 06:11:57;;;;;;;3.20;1.37;;;18.50;97.30;;;;;;4978794;28;20442;-83
2022/08/02 06:14:24;;;;;;;1.57;1.47;;;18.50;97.30;;;;;;4980614;28;20438;-83
2022/08/02 06:16:51;;;;;;;6.83;2.47;;;18.60;97.30;;;;;;4972997;28;20428;-83
2022/08/02 06:19:19;;;;;;;1.40;1.17;;;18.60;97.30;;;;;;4970477;28;20441;-83
2022/08/02 06:21:45;;;;;;;4.10;2.07;;;18.70;97.30;;;;;;4980684;28;20456;-81
2022/08/02 06:24:12;;;;;;;1.73;1.40;;;18.70;97.30;;;;;;4979931;28;20949;-82
2022/08/02 06:26:38;;;;;;;1.70;1.60;;;18.70;97.30;;;;;;4992048;28;20507;-82
2022/08/02 06:29:04;;;;;;;5.30;2.23;;;18.80;97.30;;;;;;4982549;28;20434;-83
2022/08/02 06:31:30;;;;;;;16.00;1.60;;;18.80;97.30;;;;;;4971301;28;20194;-82
2022/08/02 06:33:56;;;;;;;1.53;1.50;;;18.90;97.30;;;;;;4979277;28;20461;-82
2022/08/02 06:36:41;;;;;;;1.30;1.20;;;18.90;97.30;;;;;;4970911;28;20181;-83
2022/08/02 06:39:25;;;;;;;1.40;1.30;;;19.00;97.30;;;;;;4981413;28;20210;-82
2022/08/02 06:41:55;;;;;;;1.10;1.10;;;19.00;97.30;;;;;;4979100;28;20456;-82
2022/08/02 06:44:21;;;;;;;1.00;0.97;;;19.10;97.30;;;;;;4980725;28;20463;-83
2022/08/02 06:46:47;;;;;;;1.23;1.17;;;19.20;97.30;;;;;;4980096;28;20425;-82
2022/08/02 06:49:12;;;;;;;2.30;2.17;;;19.30;97.30;;;;;;4977703;28;20242;-82
2022/08/02 06:51:38;;;;;;;1.67;1.63;;;19.40;97.30;;;;;;4980682;28;20418;-83
2022/08/02 06:54:04;;;;;;;1.17;1.13;;;19.40;97.30;;;;;;4980054;28;20206;-83
2022/08/02 06:56:29;;;;;;;1.63;1.53;;;19.50;97.30;;;;;;4980866;28;20183;-82
2022/08/02 06:58:55;;;;;;;1.03;0.97;;;19.60;97.30;;;;;;4981694;28;20210;-83
2022/08/02 07:01:20;;;;;;;2.13;1.60;;;19.60;97.30;;;;;;4981613;28;20175;-82
2022/08/02 07:03:46;;;;;;;8.20;2.00;;;19.60;97.30;;;;;;4981850;28;20179;-84
2022/08/02 07:06:11;;;;;;;1.87;1.40;;;19.70;97.20;;;;;;4983194;28;20716;-83
2022/08/02 07:08:38;;;;;;;1.87;1.77;;;19.70;97.10;;;;;;4983086;28;20210;-82
2022/08/02 07:11:05;;;;;;;1.70;1.60;;;19.70;97.30;;;;;;4984564;28;20562;-83
2022/08/02 07:13:30;;;;;;;3.73;1.50;;;19.80;97.30;;;;;;4984663;28;20454;-83
2022/08/02 07:15:56;;;;;;;3.07;1.87;;;19.80;97.30;;;;;;4985454;28;20933;-82
2022/08/02 07:18:23;;;;;;;1.50;1.47;;;19.90;97.30;;;;;;4985238;28;20277;-82
2022/08/02 07:20:49;;;;;;;1.10;1.10;;;19.90;97.30;;;;;;4985300;28;20178;-82
2022/08/02 07:23:15;;;;;;;2.70;2.10;;;19.90;97.30;;;;;;4986611;28;20476;-82
2022/08/02 07:25:41;;;;;;;1.47;1.13;;;20.00;97.10;;;;;;4985230;28;20190;-82
2022/08/02 07:28:09;;;;;;;3.27;2.17;;;20.10;97.00;;;;;;4986582;28;20441;-82
2022/08/02 07:30:35;;;;;;;1.20;1.10;;;20.10;96.50;;;;;;4971184;28;20182;-83
2022/08/02 07:33:01;;;;;;;2.17;1.60;;;20.20;96.60;;;;;;4987777;28;20459;-83
2022/08/02 07:35:27;;;;;;;3.77;1.80;;;20.20;96.80;;;;;;4974653;28;20187;-82
2022/08/02 07:37:53;;;;;;;1.20;1.10;;;20.30;96.70;;;;;;4979948;28;20425;-83
2022/08/02 07:40:19;;;;;;;1.50;1.40;;;20.50;96.60;;;;;;4984115;28;20450;-83
2022/08/02 07:42:46;;;;;;;1.83;1.57;;;20.50;96.20;;;;;;4971608;28;20768;-82
2022/08/02 07:45:12;;;;;;;3.83;1.77;;;20.60;96.20;;;;;;4973873;28;20566;-82
2022/08/02 07:47:39;;;;;;;1.20;1.10;;;20.70;96.20;;;;;;4997214;28;20427;-83
2022/08/02 07:50:06;;;;;;;3.20;2.33;;;20.80;95.90;;;;;;4990214;28;21087;-82
2022/08/02 07:52:32;;;;;;;0.80;0.80;;;20.90;95.70;;;;;;4982255;28;20516;-82
2022/08/02 07:54:58;;;;;;;2.10;2.00;;;20.90;95.20;;;;;;4971489;28;20415;-82
2022/08/02 07:57:24;;;;;;;3.37;1.60;;;20.90;93.40;;;;;;4994196;28;20279;-83
2022/08/02 07:59:50;;;;;;;1.30;1.20;;;20.90;93.50;;;;;;4982220;28;20194;-83
2022/08/02 08:02:16;;;;;;;32.03;2.90;;;20.90;92.70;;;;;;4989007;28;20186;-83
2022/08/02 08:04:42;;;;;;;3.57;2.03;;;20.90;93.30;;;;;;4979211;28;20437;-83
2022/08/02 08:07:10;;;;;;;8.63;1.10;;;21.00;94.10;;;;;;4983382;28;20458;-82
2022/08/02 08:09:40;;;;;;;5.30;2.77;;;21.10;93.70;;;;;;4996204;28;20206;-82
2022/08/02 08:12:09;;;;;;;1.20;0.90;;;21.20;93.30;;;;;;4954727;28;20417;-83
2022/08/02 08:14:35;;;;;;;1.77;1.50;;;21.20;92.90;;;;;;4995008;28;20493;-82
2022/08/02 08:17:02;;;;;;;1.33;1.23;;;21.30;93.00;;;;;;4983008;28;20422;-83
2022/08/02 08:19:27;;;;;;;1.57;1.53;;;21.30;92.60;;;;;;4969545;28;21091;-82
2022/08/02 08:21:53;;;;;;;2.70;1.97;;;21.30;92.30;;;;;;4982970;28;20458;-83
2022/08/02 08:24:19;;;;;;;1.40;1.40;;;21.40;92.70;;;;;;4981935;28;20182;-82
2022/08/02 08:26:44;;;;;;;2.90;2.33;;;21.50;93.00;;;;;;4972174;28;20182;-83
2022/08/02 08:29:10;;;;;;;21.93;1.57;;;21.70;92.30;;;;;;4983090;28;20273;-83
2022/08/02 08:31:36;;;;;;;1.20;1.10;;;21.80;92.00;;;;;;4983138;28;20186;-82
2022/08/02 08:34:02;;;;;;;1.67;1.20;;;21.90;92.70;;;;;;4982189;28;20214;-83
2022/08/02 08:36:27;;;;;;;1.30;1.30;;;22.00;91.70;;;;;;4983036;28;20528;-82
2022/08/02 08:38:54;;;;;;;1.50;1.40;;;22.10;91.60;;;;;;4982186;28;20236;-82
2022/08/02 08:41:20;;;;;;;2.97;2.00;;;22.20;91.70;;;;;;5038821;23;20236;-80
2022/08/02 08:43:46;;;;;;;1.90;1.33;;;22.30;91.10;;;;;;5047962;28;20423;-80
2022/08/02 08:46:30;;;;;;;1.60;1.40;;;22.40;90.50;;;;;;5047277;28;20415;-80
2022/08/02 08:49:19;;;;;;;2.07;1.67;;;22.40;89.90;;;;;;5021120;28;20803;-80
2022/08/02 08:51:44;;;;;;;1.33;1.20;;;22.50;89.20;;;;;;4998381;28;20492;-80
2022/08/02 08:54:15;;;;;;;2.30;1.20;;;22.50;89.70;;;;;;5017525;28;20575;-79
2022/08/02 08:56:42;;;;;;;1.70;1.60;;;22.60;90.10;;;;;;5027387;28;20400;-79
2022/08/02 08:59:08;;;;;;;1.43;1.33;;;22.70;90.00;;;;;;5012301;28;20859;-79
2022/08/02 09:01:34;;;;;;;1.50;1.40;;;22.70;89.30;;;;;;5011056;28;20416;-80
2022/08/02 09:03:59;;;;;;;4.20;2.00;;;22.80;89.50;;;;;;5027570;28;20447;-79
2022/08/02 09:06:25;;;;;;;1.53;1.43;;;22.80;89.40;;;;;;5015488;28;20181;-79
2022/08/02 09:08:51;;;;;;;1.20;1.10;;;22.90;88.70;;;;;;5027532;28;20279;-80
2022/08/02 09:11:21;;;;;;;1.50;1.37;;;22.90;88.70;;;;;;5027148;28;20177;-80
2022/08/02 09:13:53;;;;;;;1.20;1.10;;;22.90;88.90;;;;;;5003986;28;20201;-79
2022/08/02 09:16:36;;;;;;;1.30;1.20;;;23.00;89.20;;;;;;5027116;28;20416;-81
2022/08/02 09:19:17;;;;;;;1.10;1.00;;;23.20;89.10;;;;;;5027331;28;20531;-80
2022/08/02 09:21:43;;;;;;;2.00;1.60;;;23.30;89.00;;;;;;5027095;28;20880;-81
2022/08/02 09:24:20;;;;;;;1.60;1.50;;;23.50;88.30;;;;;;5010404;28;20470;-81
2022/08/02 09:26:47;;;;;;;4.10;2.10;;;23.60;88.00;;;;;;5027179;28;20434;-80
2022/08/02 09:29:14;;;;;;;4.97;1.87;;;23.70;88.20;;;;;;5020042;28;20744;-79
2022/08/02 09:31:39;;;;;;;1.63;1.40;;;23.90;88.00;;;;;;5021075;28;20436;-80
2022/08/02 09:34:07;;;;;;;1.87;1.57;;;24.00;88.00;;;;;;5026201;28;20466;-79
2022/08/02 09:36:44;;;;;;;5.17;1.70;;;24.20;87.00;;;;;;5011587;28;20224;-81
2022/08/02 09:39:12;;;;;;;2.70;2.50;;;24.30;86.60;;;;;;5026198;28;20475;-80
2022/08/02 09:41:40;;;;;;;7.47;1.30;;;24.40;87.00;;;;;;5029611;28;20439;-80
2022/08/02 09:44:07;;;;;;;1.13;1.03;;;24.50;86.50;;;;;;5029903;28;20416;-80
2022/08/02 09:46:38;;;;;;;1.33;1.33;;;24.50;86.20;;;;;;5029896;28;20805;-80
2022/08/02 09:49:08;;;;;;;1.20;1.10;;;24.50;86.40;;;;;;5030961;28;20443;-80
2022/08/02 09:51:44;;;;;;;3.60;1.50;;;24.50;86.60;;;;;;5029798;28;20461;-80
2022/08/02 09:54:14;;;;;;;4.50;1.77;;;24.50;85.70;;;;;;5029554;28;20463;-80
2022/08/02 09:56:55;;;;;;;2.07;1.50;;;24.50;86.40;;;;;;5029997;28;20407;-80
2022/08/02 09:59:23;;;;;;;1.43;1.33;;;24.60;87.40;;;;;;5029807;28;20446;-81
2022/08/02 10:01:49;;;;;;;1.83;1.47;;;24.70;86.00;;;;;;5030443;28;20419;-80
2022/08/02 10:04:22;;;;;;;1.00;0.97;;;24.90;85.40;;;;;;5030716;28;20510;-79
2022/08/02 10:06:49;;;;;;;2.37;2.20;;;25.00;86.80;;;;;;5012814;28;20419;-80
2022/08/02 10:09:16;;;;;;;1.83;1.77;;;25.10;86.80;;;;;;5026572;28;20443;-79
2022/08/02 10:11:41;;;;;;;1.63;1.30;;;25.20;86.90;;;;;;5019748;28;20940;-80
2022/08/02 10:14:09;;;;;;;1.60;1.50;;;25.30;86.10;;;;;;5029312;28;20509;-80
2022/08/02 10:16:39;;;;;;;1.23;1.13;;;25.30;83.90;;;;;;5029641;28;20720;-80
2022/08/02 10:19:05;;;;;;;1.40;1.40;;;25.20;84.50;;;;;;5029137;28;21026;-80
2022/08/02 10:21:36;;;;;;;1.50;1.40;;;25.20;85.20;;;;;;5029245;28;20415;-80
2022/08/02 10:24:11;;;;;;;2.30;1.60;;;25.30;85.50;;;;;;5029107;28;20852;-80
2022/08/02 10:26:42;;;;;;;1.80;1.40;;;25.40;85.80;;;;;;5030696;28;20518;-79
2022/08/02 10:29:09;;;;;;;3.37;1.80;;;25.50;86.00;;;;;;5028979;28;20493;-80
2022/08/02 10:31:41;;;;;;;1.47;1.37;;;25.70;86.10;;;;;;5029108;28;20423;-80
2022/08/02 10:34:10;;;;;;;1.30;1.30;;;25.80;84.10;;;;;;5017260;28;20465;-81
2022/08/02 10:36:38;;;;;;;13.87;2.90;;;25.90;85.10;;;;;;5030448;28;20786;-80
2022/08/02 10:39:05;;;;;;;6.80;1.40;;;26.10;83.10;;;;;;5033019;28;20838;-81
2022/08/02 10:41:44;;;;;;;2.23;1.93;;;26.20;81.80;;;;;;5029654;28;20506;-80
2022/08/02 10:44:25;;;;;;;1.50;1.43;;;26.20;82.30;;;;;;5030616;28;20504;-79
2022/08/02 10:46:51;;;;;;;1.60;1.37;;;26.20;82.60;;;;;;5021514;28;20446;-81
2022/08/02 10:49:21;;;;;;;1.37;1.23;;;26.20;82.40;;;;;;5033336;28;20446;-80
2022/08/02 10:52:02;;;;;;;1.40;1.13;;;26.30;83.00;;;;;;5035412;28;20510;-80
2022/08/02 10:54:30;;;;;;;1.90;1.70;;;26.40;81.70;;;;;;5033144;28;20462;-80
2022/08/02 10:56:58;;;;;;;2.30;2.03;;;26.50;81.40;;;;;;5016710;28;20430;-80
2022/08/02 10:59:34;;;;;;;2.23;1.97;;;26.50;81.80;;;;;;5029149;28;20432;-81
2022/08/02 11:02:01;;;;;;;2.33;1.60;;;26.50;82.10;;;;;;5026222;28;20418;-80
2022/08/02 11:04:31;;;;;;;1.57;1.47;;;26.70;82.30;;;;;;5038811;28;20445;-80
2022/08/02 11:07:15;;;;;;;1.83;1.50;;;26.90;80.90;;;;;;5023437;28;20861;-81
2022/08/02 11:09:42;;;;;;;1.83;1.20;;;27.10;81.60;;;;;;5013701;28;20442;-81
2022/08/02 11:12:10;;;;;;;1.43;1.30;;;27.20;80.80;;;;;;5028992;28;20595;-80
2022/08/02 11:14:37;;;;;;;1.43;1.37;;;27.30;80.80;;;;;;5024506;28;20440;-80
2022/08/02 11:17:04;;;;;;;9.13;1.50;;;27.30;81.00;;;;;;5031356;28;20462;-81
2022/08/02 11:19:30;;;;;;;1.20;1.10;;;27.40;79.80;;;;;;5016744;28;20447;-81
2022/08/02 11:22:06;;;;;;;1.40;1.30;;;27.60;79.60;;;;;;5034491;28;20419;-80
2022/08/02 11:24:39;;;;;;;1.27;1.17;;;27.70;79.60;;;;;;5022923;28;20415;-80
2022/08/02 11:27:07;;;;;;;1.83;1.20;;;27.80;78.90;;;;;;5033939;28;20473;-80
2022/08/02 11:29:39;;;;;;;2.27;1.60;;;27.90;78.30;;;;;;5033098;28;20431;-80
2022/08/02 11:32:13;;;;;;;2.40;1.67;;;27.80;78.40;;;;;;5034455;28;20446;-80
2022/08/02 11:34:41;;;;;;;1.30;1.20;;;27.70;78.00;;;;;;5036720;28;20522;-79
2022/08/02 11:37:07;;;;;;;3.77;1.27;;;27.70;77.90;;;;;;5033386;28;20418;-81
2022/08/02 11:39:32;;;;;;;1.40;1.30;;;27.70;79.40;;;;;;5032985;28;20474;-80
2022/08/02 11:41:59;;;;;;;1.20;1.10;;;27.80;80.20;;;;;;5034176;28;20803;-81
2022/08/02 11:44:37;;;;;;;1.80;1.70;;;27.80;78.50;;;;;;5034805;28;20180;-80
2022/08/02 11:47:03;;;;;;;1.17;1.03;;;27.70;78.00;;;;;;5004131;28;20459;-80
2022/08/02 11:49:29;;;;;;;1.93;1.73;;;27.70;78.70;;;;;;5033117;28;20983;-79
2022/08/02 11:52:06;;;;;;;0.97;0.87;;;27.70;78.40;;;;;;5033928;28;20200;-79
2022/08/02 11:54:50;;;;;;;1.40;1.30;;;27.70;78.40;;;;;;5020169;28;21074;-80
2022/08/02 11:57:18;;;;;;;1.97;1.87;;;27.70;77.80;;;;;;5017897;28;20443;-80
2022/08/02 11:59:45;;;;;;;1.47;1.37;;;27.90;79.60;;;;;;5034469;28;20489;-81
2022/08/02 12:02:12;;;;;;;1.60;1.37;;;27.90;78.50;;;;;;5036137;28;20481;-80
2022/08/02 12:04:40;;;;;;;1.87;1.80;;;28.00;77.50;;;;;;5037982;28;20415;-82
2022/08/02 12:07:07;;;;;;;1.40;1.30;;;28.00;76.10;;;;;;5030377;28;20407;-82
2022/08/02 12:09:34;;;;;;;1.60;1.50;;;28.10;77.20;;;;;;5042468;28;20430;-81
2022/08/02 12:12:01;;;;;;;1.17;1.07;;;28.20;76.70;;;;;;5041762;28;20419;-81
2022/08/02 12:14:29;;;;;;;2.27;1.50;;;28.40;76.30;;;;;;5040509;28;20451;-81
2022/08/02 12:19:41;;;;;;;11.03;1.37;;;28.60;76.30;;;;;;5041849;28;20426;-82
2022/08/02 12:22:26;;;;;;;1.20;1.10;;;28.80;76.50;;;;;;5038898;28;20443;-80
2022/08/02 12:24:54;;;;;;;1.00;1.00;;;28.90;76.30;;;;;;5042602;28;20427;-83
2022/08/02 12:27:37;;;;;;;1.33;1.20;;;29.00;74.10;;;;;;5041102;28;20415;-81
2022/08/02 12:30:16;;;;;;;1.60;1.50;;;29.00;74.00;;;;;;5025009;28;20439;-81
2022/08/02 12:32:42;;;;;;;1.50;1.43;;;29.00;74.10;;;;;;5035431;28;20455;-81
2022/08/02 12:35:21;;;;;;;2.13;1.53;;;29.10;74.80;;;;;;5039492;28;20408;-80
2022/08/02 12:37:48;;;;;;;3.13;1.90;;;29.30;74.80;;;;;;5029278;28;20939;-80
2022/08/02 12:40:31;;;;;;;1.67;1.40;;;29.40;74.10;;;;;;5033155;28;20517;-82
2022/08/02 12:43:03;;;;;;;1.20;1.10;;;29.50;73.90;;;;;;5029031;28;20968;-79
2022/08/02 12:45:54;;;;;;;1.50;1.40;;;29.50;73.50;;;;;;5027528;28;20420;-80
2022/08/02 12:48:35;;;;;;;2.23;2.03;;;29.50;75.60;;;;;;5035334;28;20443;-80
2022/08/02 12:51:18;;;;;;;1.53;1.40;;;29.70;72.90;;;;;;5042529;28;20899;-81
2022/08/02 12:53:44;;;;;;;1.70;1.60;;;29.90;72.00;;;;;;5012575;28;20470;-80
2022/08/02 12:56:10;;;;;;;1.77;1.37;;;30.00;71.80;;;;;;5038193;28;20416;-80
2022/08/02 12:58:49;;;;;;;1.23;1.13;;;30.00;71.80;;;;;;5034495;28;20272;-80
2022/08/02 13:01:23;;;;;;;2.07;1.60;;;29.90;72.10;;;;;;5033881;28;20180;-81
2022/08/02 13:03:49;;;;;;;1.20;1.10;;;29.90;72.10;;;;;;5031891;28;20415;-79